sensor_id;sensor_type;location;lat;lon;timestamp;pressure;altitude;pressure_sealevel;temperature;humidity
45813;BME280;31519;45.408;10.962;2023-02-22T00:01:00;101091.63;;;13.94;79.97
45813;BME280;31519;45.408;10.962;2023-02-22T00:03:34;101092.91;;;13.96;79.88
45813;BME280;31519;45.408;10.962;2023-02-22T00:06:04;101093.34;;;13.90;79.94
45813;BME280;31519;45.408;10.962;2023-02-22T00:08:35;101096.41;;;14.14;78.90
45813;BME280;31519;45.408;10.962;2023-02-22T00:11:05;101097.97;;;14.15;78.69
45813;BME280;31519;45.408;10.962;2023-02-22T00:13:37;101088.34;;;13.97;79.15
45813;BME280;31519;45.408;10.962;2023-02-22T00:16:05;101092.59;;;14.06;79.02
45813;BME280;31519;45.408;10.962;2023-02-22T00:18:33;101082.69;;;14.07;78.81
45813;BME280;31519;45.408;10.962;2023-02-22T00:21:05;101093.22;;;14.12;78.70
45813;BME280;31519;45.408;10.962;2023-02-22T00:23:40;101087.06;;;13.94;79.22
45813;BME280;31519;45.408;10.962;2023-02-22T00:26:19;101092.56;;;13.89;79.69
45813;BME280;31519;45.408;10.962;2023-02-22T00:28:50;101086.41;;;13.89;79.77
45813;BME280;31519;45.408;10.962;2023-02-22T00:31:19;101084.81;;;13.79;80.04
45813;BME280;31519;45.408;10.962;2023-02-22T00:33:49;101083.78;;;13.97;79.51
45813;BME280;31519;45.408;10.962;2023-02-22T00:36:17;101085.81;;;14.00;79.28
45813;BME280;31519;45.408;10.962;2023-02-22T00:38:45;101077.44;;;13.93;79.67
45813;BME280;31519;45.408;10.962;2023-02-22T00:41:14;101084.56;;;14.06;79.10
45813;BME280;31519;45.408;10.962;2023-02-22T00:43:43;101075.09;;;14.09;79.13
45813;BME280;31519;45.408;10.962;2023-02-22T00:46:12;101071.78;;;13.95;79.10
45813;BME280;31519;45.408;10.962;2023-02-22T00:48:40;101069.59;;;14.05;78.68
45813;BME280;31519;45.408;10.962;2023-02-22T00:51:08;101072.56;;;14.04;78.40
45813;BME280;31519;45.408;10.962;2023-02-22T00:53:36;101073.22;;;14.01;78.76
45813;BME280;31519;45.408;10.962;2023-02-22T00:56:05;101074.94;;;13.97;78.79
45813;BME280;31519;45.408;10.962;2023-02-22T00:58:33;101075.25;;;14.04;78.69
45813;BME280;31519;45.408;10.962;2023-02-22T01:01:02;101079.50;;;13.96;78.60
45813;BME280;31519;45.408;10.962;2023-02-22T01:03:30;101073.72;;;14.20;78.25
45813;BME280;31519;45.408;10.962;2023-02-22T01:05:59;101076.56;;;14.32;77.47
45813;BME280;31519;45.408;10.962;2023-02-22T01:08:27;101082.56;;;14.20;77.19
45813;BME280;31519;45.408;10.962;2023-02-22T01:10:58;101071.63;;;14.08;78.04
45813;BME280;31519;45.408;10.962;2023-02-22T01:13:26;101070.25;;;14.11;77.95
45813;BME280;31519;45.408;10.962;2023-02-22T01:16:15;101075.59;;;14.19;77.56
45813;BME280;31519;45.408;10.962;2023-02-22T01:18:43;101074.47;;;14.03;77.88
45813;BME280;31519;45.408;10.962;2023-02-22T01:21:12;101082.38;;;14.26;76.70
45813;BME280;31519;45.408;10.962;2023-02-22T01:23:43;101070.69;;;14.13;76.91
45813;BME280;31519;45.408;10.962;2023-02-22T01:26:12;101074.88;;;13.80;79.00
45813;BME280;31519;45.408;10.962;2023-02-22T01:28:40;101074.41;;;13.77;79.51
45813;BME280;31519;45.408;10.962;2023-02-22T01:31:09;101064.22;;;13.88;79.44
45813;BME280;31519;45.408;10.962;2023-02-22T01:33:39;101060.56;;;13.84;79.89
45813;BME280;31519;45.408;10.962;2023-02-22T01:36:08;101064.34;;;13.74;80.37
45813;BME280;31519;45.408;10.962;2023-02-22T01:38:38;101060.84;;;13.65;80.99
45813;BME280;31519;45.408;10.962;2023-02-22T01:41:07;101062.69;;;13.56;80.85
45813;BME280;31519;45.408;10.962;2023-02-22T01:43:36;101063.31;;;13.62;81.04
45813;BME280;31519;45.408;10.962;2023-02-22T01:46:19;101056.22;;;13.57;80.31
45813;BME280;31519;45.408;10.962;2023-02-22T01:48:58;101053.78;;;13.78;80.28
45813;BME280;31519;45.408;10.962;2023-02-22T01:51:40;101045.38;;;13.62;81.02
45813;BME280;31519;45.408;10.962;2023-02-22T01:54:51;101042.59;;;13.76;81.02
45813;BME280;31519;45.408;10.962;2023-02-22T01:57:28;101037.81;;;13.56;81.61
45813;BME280;31519;45.408;10.962;2023-02-22T02:00:20;101039.09;;;13.67;81.29
45813;BME280;31519;45.408;10.962;2023-02-22T02:02:58;101036.88;;;13.52;82.24
45813;BME280;31519;45.408;10.962;2023-02-22T02:05:29;101041.09;;;13.53;82.87
45813;BME280;31519;45.408;10.962;2023-02-22T02:08:05;101035.94;;;13.56;82.25
45813;BME280;31519;45.408;10.962;2023-02-22T02:10:43;101028.09;;;13.68;81.65
45813;BME280;31519;45.408;10.962;2023-02-22T02:13:11;101023.78;;;13.50;82.61
45813;BME280;31519;45.408;10.962;2023-02-22T02:15:39;101026.63;;;13.54;82.62
45813;BME280;31519;45.408;10.962;2023-02-22T02:18:10;101023.28;;;13.40;83.41
45813;BME280;31519;45.408;10.962;2023-02-22T02:29:52;101019.13;;;13.25;84.49
45813;BME280;31519;45.408;10.962;2023-02-22T02:40:34;101013.34;;;13.40;84.37
45813;BME280;31519;45.408;10.962;2023-02-22T02:43:30;101002.41;;;13.67;82.51
45813;BME280;31519;45.408;10.962;2023-02-22T02:48:46;100997.38;;;13.66;82.36
45813;BME280;31519;45.408;10.962;2023-02-22T02:51:18;100997.69;;;13.64;82.62
45813;BME280;31519;45.408;10.962;2023-02-22T02:53:50;100997.19;;;13.54;83.50
45813;BME280;31519;45.408;10.962;2023-02-22T02:56:19;100987.91;;;13.60;83.16
45813;BME280;31519;45.408;10.962;2023-02-22T02:58:51;100990.22;;;13.44;83.89
45813;BME280;31519;45.408;10.962;2023-02-22T03:07:54;100984.19;;;13.78;81.84
45813;BME280;31519;45.408;10.962;2023-02-22T03:13:27;100980.03;;;13.55;82.44
45813;BME280;31519;45.408;10.962;2023-02-22T03:16:20;100977.34;;;13.46;82.91
45813;BME280;31519;45.408;10.962;2023-02-22T03:22:16;100979.38;;;13.41;83.04
45813;BME280;31519;45.408;10.962;2023-02-22T03:30:10;100980.03;;;13.55;82.31
45813;BME280;31519;45.408;10.962;2023-02-22T03:32:43;100971.22;;;13.54;82.63
45813;BME280;31519;45.408;10.962;2023-02-22T03:35:24;100982.56;;;13.51;83.03
45813;BME280;31519;45.408;10.962;2023-02-22T03:38:01;100974.94;;;13.36;84.06
45813;BME280;31519;45.408;10.962;2023-02-22T03:40:34;100979.50;;;13.36;83.48
45813;BME280;31519;45.408;10.962;2023-02-22T03:43:06;100976.38;;;13.34;84.04
45813;BME280;31519;45.408;10.962;2023-02-22T03:45:42;100981.13;;;13.54;83.33
45813;BME280;31519;45.408;10.962;2023-02-22T03:48:25;100977.06;;;13.56;82.96
45813;BME280;31519;45.408;10.962;2023-02-22T03:51:01;100975.47;;;13.55;82.81
45813;BME280;31519;45.408;10.962;2023-02-22T03:53:33;100978.31;;;13.59;82.92
45813;BME280;31519;45.408;10.962;2023-02-22T03:56:10;100977.91;;;13.35;84.03
45813;BME280;31519;45.408;10.962;2023-02-22T03:58:41;100980.44;;;13.31;84.33
45813;BME280;31519;45.408;10.962;2023-02-22T04:01:15;100987.47;;;13.18;85.62
45813;BME280;31519;45.408;10.962;2023-02-22T04:03:44;100987.63;;;13.22;85.42
45813;BME280;31519;45.408;10.962;2023-02-22T04:06:13;100990.16;;;13.18;85.42
45813;BME280;31519;45.408;10.962;2023-02-22T04:08:41;100983.94;;;13.40;84.76
45813;BME280;31519;45.408;10.962;2023-02-22T04:11:11;100982.31;;;13.30;84.93
45813;BME280;31519;45.408;10.962;2023-02-22T04:13:41;100986.72;;;13.26;84.83
45813;BME280;31519;45.408;10.962;2023-02-22T04:16:09;100983.28;;;13.35;84.66
45813;BME280;31519;45.408;10.962;2023-02-22T04:18:39;100988.59;;;13.26;85.08
45813;BME280;31519;45.408;10.962;2023-02-22T04:21:07;100987.69;;;13.39;84.94
45813;BME280;31519;45.408;10.962;2023-02-22T04:23:40;100988.72;;;13.21;85.34
45813;BME280;31519;45.408;10.962;2023-02-22T04:26:09;100986.41;;;13.28;85.33
45813;BME280;31519;45.408;10.962;2023-02-22T04:28:37;100987.63;;;13.22;85.07
45813;BME280;31519;45.408;10.962;2023-02-22T04:31:22;100988.72;;;13.21;85.84
45813;BME280;31519;45.408;10.962;2023-02-22T04:33:52;100990.75;;;13.15;86.37
45813;BME280;31519;45.408;10.962;2023-02-22T04:36:25;100981.03;;;12.97;87.14
45813;BME280;31519;45.408;10.962;2023-02-22T04:38:53;100982.91;;;13.19;86.31
45813;BME280;31519;45.408;10.962;2023-02-22T04:41:22;100990.06;;;13.01;86.92
45813;BME280;31519;45.408;10.962;2023-02-22T04:43:52;100985.09;;;13.17;86.07
45813;BME280;31519;45.408;10.962;2023-02-22T04:46:23;100984.16;;;13.13;86.33
45813;BME280;31519;45.408;10.962;2023-02-22T04:48:53;100988.56;;;12.86;88.16
45813;BME280;31519;45.408;10.962;2023-02-22T04:51:24;100984.03;;;12.96;87.53
45813;BME280;31519;45.408;10.962;2023-02-22T04:53:59;100983.88;;;12.92;88.68
45813;BME280;31519;45.408;10.962;2023-02-22T04:56:29;100984.81;;;12.87;88.35
45813;BME280;31519;45.408;10.962;2023-02-22T04:58:57;100982.59;;;12.89;88.44
45813;BME280;31519;45.408;10.962;2023-02-22T05:01:30;100986.06;;;12.90;88.32
45813;BME280;31519;45.408;10.962;2023-02-22T05:04:01;100983.47;;;12.76;89.61
45813;BME280;31519;45.408;10.962;2023-02-22T05:06:29;100978.53;;;12.92;88.60
45813;BME280;31519;45.408;10.962;2023-02-22T05:08:58;100981.75;;;12.80;89.86
45813;BME280;31519;45.408;10.962;2023-02-22T05:11:26;100985.88;;;12.86;89.01
45813;BME280;31519;45.408;10.962;2023-02-22T05:13:54;100986.69;;;12.87;89.39
45813;BME280;31519;45.408;10.962;2023-02-22T05:16:23;100984.53;;;13.06;88.16
45813;BME280;31519;45.408;10.962;2023-02-22T05:18:51;100988.13;;;13.02;88.64
45813;BME280;31519;45.408;10.962;2023-02-22T05:21:19;100992.28;;;13.08;88.36
45813;BME280;31519;45.408;10.962;2023-02-22T05:23:47;100982.78;;;13.24;87.31
45813;BME280;31519;45.408;10.962;2023-02-22T05:26:15;100981.78;;;13.20;87.65
45813;BME280;31519;45.408;10.962;2023-02-22T05:28:44;100975.88;;;13.31;86.98
45813;BME280;31519;45.408;10.962;2023-02-22T05:31:12;100980.13;;;13.02;88.58
45813;BME280;31519;45.408;10.962;2023-02-22T05:33:40;100974.94;;;12.74;90.88
45813;BME280;31519;45.408;10.962;2023-02-22T05:36:08;100986.19;;;12.85;90.25
45813;BME280;31519;45.408;10.962;2023-02-22T05:38:36;100989.13;;;13.06;88.96
45813;BME280;31519;45.408;10.962;2023-02-22T05:41:12;100985.16;;;13.03;89.09
45813;BME280;31519;45.408;10.962;2023-02-22T05:43:40;100987.31;;;13.15;88.63
45813;BME280;31519;45.408;10.962;2023-02-22T05:46:09;100986.53;;;13.14;88.42
45813;BME280;31519;45.408;10.962;2023-02-22T05:48:37;100988.34;;;13.05;88.56
45813;BME280;31519;45.408;10.962;2023-02-22T05:51:06;100983.28;;;13.04;89.28
45813;BME280;31519;45.408;10.962;2023-02-22T05:53:34;100989.50;;;13.13;88.41
45813;BME280;31519;45.408;10.962;2023-02-22T05:56:03;100981.66;;;12.94;89.59
45813;BME280;31519;45.408;10.962;2023-02-22T05:58:31;100986.38;;;12.97;89.27
45813;BME280;31519;45.408;10.962;2023-02-22T06:00:59;100992.19;;;12.91;89.41
45813;BME280;31519;45.408;10.962;2023-02-22T06:03:29;100988.88;;;13.16;88.29
45813;BME280;31519;45.408;10.962;2023-02-22T06:05:58;100984.09;;;13.04;88.74
45813;BME280;31519;45.408;10.962;2023-02-22T06:08:26;100989.22;;;12.92;89.01
45813;BME280;31519;45.408;10.962;2023-02-22T06:10:54;100992.63;;;12.84;89.25
45813;BME280;31519;45.408;10.962;2023-02-22T06:13:22;100990.91;;;12.88;89.29
45813;BME280;31519;45.408;10.962;2023-02-22T06:15:50;100993.25;;;13.12;87.95
45813;BME280;31519;45.408;10.962;2023-02-22T06:18:18;100989.44;;;13.04;87.54
45813;BME280;31519;45.408;10.962;2023-02-22T06:20:47;100993.78;;;13.22;86.90
45813;BME280;31519;45.408;10.962;2023-02-22T06:23:15;100996.44;;;12.92;89.02
45813;BME280;31519;45.408;10.962;2023-02-22T06:25:43;100993.19;;;13.03;88.52
45813;BME280;31519;45.408;10.962;2023-02-22T06:28:11;100990.81;;;13.02;88.48
45813;BME280;31519;45.408;10.962;2023-02-22T06:30:40;101002.19;;;13.07;88.60
45813;BME280;31519;45.408;10.962;2023-02-22T06:33:10;101000.28;;;13.08;88.30
45813;BME280;31519;45.408;10.962;2023-02-22T06:35:38;101007.63;;;12.94;89.10
45813;BME280;31519;45.408;10.962;2023-02-22T06:38:07;101016.16;;;13.04;89.29
45813;BME280;31519;45.408;10.962;2023-02-22T06:40:35;101011.97;;;13.12;87.90
45813;BME280;31519;45.408;10.962;2023-02-22T06:43:03;101012.03;;;13.29;87.18
45813;BME280;31519;45.408;10.962;2023-02-22T06:45:32;101020.56;;;13.31;86.69
45813;BME280;31519;45.408;10.962;2023-02-22T06:48:00;101018.53;;;13.28;87.13
45813;BME280;31519;45.408;10.962;2023-02-22T06:50:29;101016.94;;;13.27;87.12
45813;BME280;31519;45.408;10.962;2023-02-22T06:52:57;101025.34;;;13.12;88.46
45813;BME280;31519;45.408;10.962;2023-02-22T06:55:28;101018.81;;;12.96;89.28
45813;BME280;31519;45.408;10.962;2023-02-22T06:57:58;101032.31;;;13.21;88.38
45813;BME280;31519;45.408;10.962;2023-02-22T07:00:28;101025.94;;;13.09;88.39
45813;BME280;31519;45.408;10.962;2023-02-22T07:02:57;101029.00;;;13.16;87.76
45813;BME280;31519;45.408;10.962;2023-02-22T07:05:27;101030.28;;;12.96;88.95
45813;BME280;31519;45.408;10.962;2023-02-22T07:08:02;101031.50;;;13.12;88.08
45813;BME280;31519;45.408;10.962;2023-02-22T07:10:33;101034.72;;;13.01;88.59
45813;BME280;31519;45.408;10.962;2023-02-22T07:13:03;101036.84;;;13.12;88.13
45813;BME280;31519;45.408;10.962;2023-02-22T07:15:33;101040.13;;;13.09;88.17
45813;BME280;31519;45.408;10.962;2023-02-22T07:18:01;101034.22;;;13.21;87.64
45813;BME280;31519;45.408;10.962;2023-02-22T07:20:31;101031.41;;;13.26;86.93
45813;BME280;31519;45.408;10.962;2023-02-22T07:22:59;101038.53;;;13.08;88.42
45813;BME280;31519;45.408;10.962;2023-02-22T07:25:28;101032.81;;;13.23;88.12
45813;BME280;31519;45.408;10.962;2023-02-22T07:27:56;101036.78;;;13.35;87.60
45813;BME280;31519;45.408;10.962;2023-02-22T07:30:28;101034.88;;;13.26;87.88
45813;BME280;31519;45.408;10.962;2023-02-22T07:33:03;101032.63;;;13.20;87.79
45813;BME280;31519;45.408;10.962;2023-02-22T07:35:37;101028.03;;;13.43;85.99
45813;BME280;31519;45.408;10.962;2023-02-22T07:38:06;101028.94;;;13.38;86.68
45813;BME280;31519;45.408;10.962;2023-02-22T07:40:38;101024.53;;;13.34;86.55
45813;BME280;31519;45.408;10.962;2023-02-22T07:43:21;101027.81;;;13.39;86.29
45813;BME280;31519;45.408;10.962;2023-02-22T07:45:51;101021.38;;;13.40;85.54
45813;BME280;31519;45.408;10.962;2023-02-22T07:48:21;101025.91;;;13.31;86.23
45813;BME280;31519;45.408;10.962;2023-02-22T07:50:51;101016.88;;;13.66;85.01
45813;BME280;31519;45.408;10.962;2023-02-22T07:53:27;101027.13;;;13.56;85.70
45813;BME280;31519;45.408;10.962;2023-02-22T07:56:02;101023.88;;;13.28;86.44
45813;BME280;31519;45.408;10.962;2023-02-22T07:58:32;101027.50;;;13.01;88.61
45813;BME280;31519;45.408;10.962;2023-02-22T08:01:00;101022.75;;;12.98;89.47
45813;BME280;31519;45.408;10.962;2023-02-22T08:03:33;101029.34;;;13.23;87.80
45813;BME280;31519;45.408;10.962;2023-02-22T08:06:05;101022.53;;;12.86;90.22
45813;BME280;31519;45.408;10.962;2023-02-22T08:08:33;101027.66;;;13.05;89.86
45813;BME280;31519;45.408;10.962;2023-02-22T08:11:02;101020.84;;;13.21;89.24
45813;BME280;31519;45.408;10.962;2023-02-22T08:13:30;101022.75;;;13.29;88.64
45813;BME280;31519;45.408;10.962;2023-02-22T08:15:59;101016.03;;;13.09;88.59
45813;BME280;31519;45.408;10.962;2023-02-22T08:18:27;101021.19;;;13.28;88.27
45813;BME280;31519;45.408;10.962;2023-02-22T08:20:55;101018.25;;;13.38;87.04
45813;BME280;31519;45.408;10.962;2023-02-22T08:23:24;101019.25;;;13.20;88.02
45813;BME280;31519;45.408;10.962;2023-02-22T08:25:54;101018.13;;;13.12;87.97
45813;BME280;31519;45.408;10.962;2023-02-22T08:28:23;101013.84;;;13.42;87.17
45813;BME280;31519;45.408;10.962;2023-02-22T08:30:52;101008.47;;;13.34;87.30
45813;BME280;31519;45.408;10.962;2023-02-22T08:33:20;101007.69;;;13.33;88.20
45813;BME280;31519;45.408;10.962;2023-02-22T08:35:49;101018.16;;;13.69;87.26
45813;BME280;31519;45.408;10.962;2023-02-22T08:38:29;101015.16;;;13.62;86.75
45813;BME280;31519;45.408;10.962;2023-02-22T08:40:58;101015.97;;;13.71;86.35
45813;BME280;31519;45.408;10.962;2023-02-22T08:43:26;101011.13;;;13.90;85.23
45813;BME280;31519;45.408;10.962;2023-02-22T08:45:55;101007.84;;;14.02;82.95
45813;BME280;31519;45.408;10.962;2023-02-22T08:48:24;101009.09;;;14.21;82.49
45813;BME280;31519;45.408;10.962;2023-02-22T08:50:52;101007.19;;;13.88;83.64
45813;BME280;31519;45.408;10.962;2023-02-22T08:53:21;101005.75;;;13.90;83.60
45813;BME280;31519;45.408;10.962;2023-02-22T08:55:50;101005.25;;;13.71;83.31
45813;BME280;31519;45.408;10.962;2023-02-22T08:58:18;101002.78;;;13.92;83.17
45813;BME280;31519;45.408;10.962;2023-02-22T09:00:46;101010.81;;;13.92;82.13
45813;BME280;31519;45.408;10.962;2023-02-22T09:03:14;101002.91;;;13.69;83.04
45813;BME280;31519;45.408;10.962;2023-02-22T09:05:43;101001.34;;;13.94;82.52
45813;BME280;31519;45.408;10.962;2023-02-22T09:08:11;101007.78;;;13.85;81.60
45813;BME280;31519;45.408;10.962;2023-02-22T09:10:40;101002.94;;;14.21;79.86
45813;BME280;31519;45.408;10.962;2023-02-22T09:13:08;101007.19;;;14.05;79.09
45813;BME280;31519;45.408;10.962;2023-02-22T09:15:37;101001.84;;;14.05;79.10
45813;BME280;31519;45.408;10.962;2023-02-22T09:18:07;101004.69;;;14.51;77.49
45813;BME280;31519;45.408;10.962;2023-02-22T09:20:36;100998.66;;;14.72;76.44
45813;BME280;31519;45.408;10.962;2023-02-22T09:23:06;100998.47;;;14.77;76.88
45813;BME280;31519;45.408;10.962;2023-02-22T09:25:36;100997.06;;;14.79;77.20
45813;BME280;31519;45.408;10.962;2023-02-22T09:28:07;100997.34;;;14.86;75.45
45813;BME280;31519;45.408;10.962;2023-02-22T09:30:36;100995.53;;;14.61;76.23
45813;BME280;31519;45.408;10.962;2023-02-22T09:33:06;101002.25;;;14.76;76.39
45813;BME280;31519;45.408;10.962;2023-02-22T09:35:38;100991.22;;;14.77;74.33
45813;BME280;31519;45.408;10.962;2023-02-22T09:38:09;100990.59;;;14.89;73.18
45813;BME280;31519;45.408;10.962;2023-02-22T09:40:45;100992.69;;;15.13;72.66
45813;BME280;31519;45.408;10.962;2023-02-22T09:43:23;100987.31;;;15.13;72.54
45813;BME280;31519;45.408;10.962;2023-02-22T09:51:21;100997.28;;;15.41;67.48
45813;BME280;31519;45.408;10.962;2023-02-22T09:53:58;100986.34;;;15.55;66.86
45813;BME280;31519;45.408;10.962;2023-02-22T09:56:28;100985.16;;;15.35;66.94
45813;BME280;31519;45.408;10.962;2023-02-22T09:59:00;100978.97;;;15.73;65.48
45813;BME280;31519;45.408;10.962;2023-02-22T10:01:39;100977.34;;;15.22;66.85
45813;BME280;31519;45.408;10.962;2023-02-22T10:04:16;100983.72;;;15.76;66.28
45813;BME280;31519;45.408;10.962;2023-02-22T10:09:56;100970.59;;;15.74;65.23
45813;BME280;31519;45.408;10.962;2023-02-22T10:26:57;100961.97;;;17.00;61.64
45813;BME280;31519;45.408;10.962;2023-02-22T10:29:45;100969.69;;;16.12;64.21
45813;BME280;31519;45.408;10.962;2023-02-22T10:32:19;100969.59;;;16.20;63.00
45813;BME280;31519;45.408;10.962;2023-02-22T10:34:50;100965.03;;;16.00;64.57
45813;BME280;31519;45.408;10.962;2023-02-22T10:37:32;100964.22;;;16.20;63.14
45813;BME280;31519;45.408;10.962;2023-02-22T10:40:12;100961.97;;;16.76;61.42
45813;BME280;31519;45.408;10.962;2023-02-22T10:42:40;100968.72;;;16.94;60.30
45813;BME280;31519;45.408;10.962;2023-02-22T10:45:35;100955.38;;;16.53;61.42
45813;BME280;31519;45.408;10.962;2023-02-22T10:48:06;100949.09;;;16.94;60.24
45813;BME280;31519;45.408;10.962;2023-02-22T10:50:39;100944.44;;;17.79;58.24
45813;BME280;31519;45.408;10.962;2023-02-22T10:53:09;100958.63;;;17.40;58.81
45813;BME280;31519;45.408;10.962;2023-02-22T10:56:31;100950.25;;;17.93;55.73
45813;BME280;31519;45.408;10.962;2023-02-22T10:58:56;100943.09;;;17.85;56.06
45813;BME280;31519;45.408;10.962;2023-02-22T11:06:33;100937.53;;;16.81;59.42
45813;BME280;31519;45.408;10.962;2023-02-22T11:09:27;100927.16;;;17.80;57.02
45813;BME280;31519;45.408;10.962;2023-02-22T11:12:20;100929.16;;;18.11;56.99
45813;BME280;31519;45.408;10.962;2023-02-22T11:14:48;100923.19;;;17.01;59.55
45813;BME280;31519;45.408;10.962;2023-02-22T11:17:27;100915.25;;;17.05;58.46
45813;BME280;31519;45.408;10.962;2023-02-22T11:19:57;100913.53;;;17.00;59.31
45813;BME280;31519;45.408;10.962;2023-02-22T11:22:40;100913.28;;;17.42;58.29
45813;BME280;31519;45.408;10.962;2023-02-22T11:25:17;100896.78;;;17.95;56.00
45813;BME280;31519;45.408;10.962;2023-02-22T11:27:49;100901.53;;;17.34;57.61
45813;BME280;31519;45.408;10.962;2023-02-22T11:30:25;100903.91;;;17.11;58.60
45813;BME280;31519;45.408;10.962;2023-02-22T11:36:00;100890.94;;;17.65;57.16
45813;BME280;31519;45.408;10.962;2023-02-22T11:38:36;100885.63;;;17.17;59.39
45813;BME280;31519;45.408;10.962;2023-02-22T11:41:49;100884.34;;;16.54;61.53
45813;BME280;31519;45.408;10.962;2023-02-22T11:44:25;100876.00;;;16.67;61.19
45813;BME280;31519;45.408;10.962;2023-02-22T11:46:57;100878.56;;;17.12;60.08
45813;BME280;31519;45.408;10.962;2023-02-22T11:49:39;100875.44;;;16.86;60.73
45813;BME280;31519;45.408;10.962;2023-02-22T11:52:21;100875.00;;;16.72;61.95
45813;BME280;31519;45.408;10.962;2023-02-22T12:20:00;100849.88;;;16.68;61.06
45813;BME280;31519;45.408;10.962;2023-02-22T12:22:43;100845.72;;;16.95;61.66
45813;BME280;31519;45.408;10.962;2023-02-22T12:28:17;100851.44;;;16.93;61.50
45813;BME280;31519;45.408;10.962;2023-02-22T12:33:57;100839.84;;;17.17;61.38
45813;BME280;31519;45.408;10.962;2023-02-22T12:36:24;100836.41;;;16.92;60.91
45813;BME280;31519;45.408;10.962;2023-02-22T12:39:01;100843.47;;;16.97;60.27
45813;BME280;31519;45.408;10.962;2023-02-22T12:41:58;100826.34;;;17.69;58.43
45813;BME280;31519;45.408;10.962;2023-02-22T12:44:34;100838.66;;;17.42;59.57
45813;BME280;31519;45.408;10.962;2023-02-22T12:47:06;100829.69;;;16.74;60.84
45813;BME280;31519;45.408;10.962;2023-02-22T12:49:44;100834.81;;;16.55;62.03
45813;BME280;31519;45.408;10.962;2023-02-22T12:55:25;100829.47;;;16.67;60.84
45813;BME280;31519;45.408;10.962;2023-02-22T13:03:42;100821.06;;;17.05;60.95
45813;BME280;31519;45.408;10.962;2023-02-22T13:09:39;100817.09;;;16.41;62.72
45813;BME280;31519;45.408;10.962;2023-02-22T13:12:32;100816.09;;;16.46;63.35
45813;BME280;31519;45.408;10.962;2023-02-22T13:18:13;100811.28;;;16.52;63.02
45813;BME280;31519;45.408;10.962;2023-02-22T13:20:48;100810.56;;;16.06;64.86
45813;BME280;31519;45.408;10.962;2023-02-22T13:23:32;100810.38;;;16.35;64.60
45813;BME280;31519;45.408;10.962;2023-02-22T13:26:24;100810.66;;;15.98;65.75
45813;BME280;31519;45.408;10.962;2023-02-22T13:40:05;100800.00;;;16.01;66.48
45813;BME280;31519;45.408;10.962;2023-02-22T13:48:16;100801.44;;;16.31;65.96
45813;BME280;31519;45.408;10.962;2023-02-22T13:51:14;100806.19;;;16.14;66.07
45813;BME280;31519;45.408;10.962;2023-02-22T13:54:00;100803.13;;;15.91;66.69
45813;BME280;31519;45.408;10.962;2023-02-22T13:56:31;100796.78;;;16.08;66.89
45813;BME280;31519;45.408;10.962;2023-02-22T13:59:02;100793.31;;;16.19;66.48
45813;BME280;31519;45.408;10.962;2023-02-22T14:01:43;100794.00;;;16.16;66.25
45813;BME280;31519;45.408;10.962;2023-02-22T14:04:34;100793.50;;;15.90;67.19
45813;BME280;31519;45.408;10.962;2023-02-22T14:09:54;100788.72;;;16.08;65.94
45813;BME280;31519;45.408;10.962;2023-02-22T14:17:59;100787.06;;;16.15;66.18
45813;BME280;31519;45.408;10.962;2023-02-22T14:20:34;100785.63;;;16.42;65.47
45813;BME280;31519;45.408;10.962;2023-02-22T14:23:27;100785.72;;;16.46;64.37
45813;BME280;31519;45.408;10.962;2023-02-22T14:26:27;100784.03;;;16.41;64.81
45813;BME280;31519;45.408;10.962;2023-02-22T14:34:39;100775.31;;;16.20;64.82
45813;BME280;31519;45.408;10.962;2023-02-22T14:37:16;100771.81;;;15.62;67.55
45813;BME280;31519;45.408;10.962;2023-02-22T14:50:18;100778.91;;;16.48;63.77
45813;BME280;31519;45.408;10.962;2023-02-22T14:55:58;100769.66;;;15.88;65.53
45813;BME280;31519;45.408;10.962;2023-02-22T14:58:47;100773.81;;;16.10;64.44
45813;BME280;31519;45.408;10.962;2023-02-22T15:01:29;100776.75;;;16.41;64.00
45813;BME280;31519;45.408;10.962;2023-02-22T15:04:21;100772.28;;;16.33;63.72
45813;BME280;31519;45.408;10.962;2023-02-22T15:06:51;100766.91;;;16.33;63.49
45813;BME280;31519;45.408;10.962;2023-02-22T15:09:23;100769.22;;;15.99;64.30
45813;BME280;31519;45.408;10.962;2023-02-22T15:14:31;100770.25;;;16.06;64.17
45813;BME280;31519;45.408;10.962;2023-02-22T15:17:20;100763.66;;;16.16;64.06
45813;BME280;31519;45.408;10.962;2023-02-22T15:19:49;100768.13;;;16.24;64.77
45813;BME280;31519;45.408;10.962;2023-02-22T15:22:28;100765.13;;;16.25;64.17
45813;BME280;31519;45.408;10.962;2023-02-22T15:25:06;100769.81;;;16.28;64.51
45813;BME280;31519;45.408;10.962;2023-02-22T15:27:36;100764.56;;;16.20;64.57
45813;BME280;31519;45.408;10.962;2023-02-22T15:30:13;100760.53;;;16.38;64.18
45813;BME280;31519;45.408;10.962;2023-02-22T15:32:43;100767.34;;;16.23;64.30
45813;BME280;31519;45.408;10.962;2023-02-22T15:35:31;100757.50;;;16.15;64.87
45813;BME280;31519;45.408;10.962;2023-02-22T15:40:34;100761.50;;;16.09;65.11
45813;BME280;31519;45.408;10.962;2023-02-22T15:43:05;100756.34;;;15.92;66.00
45813;BME280;31519;45.408;10.962;2023-02-22T15:45:35;100746.75;;;16.03;66.06
45813;BME280;31519;45.408;10.962;2023-02-22T15:48:10;100746.06;;;16.06;65.54
45813;BME280;31519;45.408;10.962;2023-02-22T15:50:38;100744.72;;;16.24;65.20
45813;BME280;31519;45.408;10.962;2023-02-22T15:53:28;100737.00;;;16.59;63.39
45813;BME280;31519;45.408;10.962;2023-02-22T15:55:59;100741.03;;;16.29;64.06